Time;durP1;ratioP1;P1;durP2;ratioP2;P2;SDS_P1;SDS_P2;PMS_P1;PMS_P2;Temp;Humidity;BMP_temperature;BMP_pressure;BME280_temperature;BME280_humidity;BME280_pressure;Samples;Min_cycle;Max_cycle;Signal;HPM_P1;HPM_P2
2023/06/24 00:00:11;;;;;;;;;4.00;4.00;;;;;;;;2002630;28;3454412;-76
2023/06/24 00:01:22;;;;;;;;;6.00;4.00;;;;;;;;2003406;28;2746091;-77
2023/06/24 00:02:35;;;;;;;;;9.00;4.33;;;;;;;;1988184;28;2746174;-77
2023/06/24 00:03:52;;;;;;;;;7.17;6.67;;;;;;;;2014940;28;2735659;-79
2023/06/24 00:05:03;;;;;;;;;8.67;5.00;;;;;;;;1979950;28;2742983;-77
2023/06/24 00:06:18;;;;;;;;;6.50;5.50;;;;;;;;2020818;28;2741429;-77
2023/06/24 00:07:28;;;;;;;;;7.33;5.00;;;;;;;;1978656;28;3459974;-77
2023/06/24 00:08:40;;;;;;;;;6.00;6.00;;;;;;;;2023868;28;2729464;-76
2023/06/24 00:09:51;;;;;;;;;5.33;5.33;;;;;;;;1994225;28;3462756;-76
2023/06/24 00:11:02;;;;;;;;;5.00;4.00;;;;;;;;2005888;28;2747144;-76
2023/06/24 00:12:18;;;;;;;;;6.67;5.00;;;;;;;;1994791;28;2746134;-76
2023/06/24 00:13:29;;;;;;;;;6.00;6.00;;;;;;;;1988432;28;2739880;-76
2023/06/24 00:14:40;;;;;;;;;4.67;4.33;;;;;;;;2003701;28;2745093;-76
2023/06/24 00:15:50;;;;;;;;;5.00;4.67;;;;;;;;2013277;28;2746110;-76
2023/06/24 00:17:01;;;;;;;;;7.00;6.00;;;;;;;;2022760;28;3453359;-76
2023/06/24 00:18:12;;;;;;;;;6.33;6.00;;;;;;;;2018798;28;2739850;-76
2023/06/24 00:19:24;;;;;;;;;5.00;5.00;;;;;;;;1973260;28;2743001;-76
2023/06/24 00:20:34;;;;;;;;;5.33;5.33;;;;;;;;1999541;28;2742989;-76
2023/06/24 00:21:45;;;;;;;;;5.00;5.00;;;;;;;;2017259;28;2740881;-76
2023/06/24 00:22:56;;;;;;;;;6.00;5.00;;;;;;;;2013879;28;3461739;-77
2023/06/24 00:24:07;;;;;;;;;7.00;5.00;;;;;;;;2025585;28;1812765;-77
2023/06/24 00:25:18;;;;;;;;;6.33;5.67;;;;;;;;1986248;28;2741024;-76
2023/06/24 00:26:31;;;;;;;;;6.50;6.17;;;;;;;;2021217;28;2739897;-76
2023/06/24 00:27:44;;;;;;;;;6.50;6.00;;;;;;;;2005054;28;2737807;-76
2023/06/24 00:28:55;;;;;;;;;6.67;5.67;;;;;;;;1980035;28;2739924;-76
2023/06/24 00:30:06;;;;;;;;;5.33;5.00;;;;;;;;2024779;28;2740939;-76
2023/06/24 00:31:17;;;;;;;;;6.67;5.00;;;;;;;;2005836;28;3459631;-76
2023/06/24 00:32:27;;;;;;;;;7.00;5.33;;;;;;;;2002299;28;3451311;-76
2023/06/24 00:33:38;;;;;;;;;4.00;4.00;;;;;;;;2007289;28;2739861;-76
2023/06/24 00:34:50;;;;;;;;;6.00;6.00;;;;;;;;2012668;28;2733634;-78
2023/06/24 00:36:00;;;;;;;;;6.00;6.00;;;;;;;;1989586;28;2743003;-78
2023/06/24 00:37:11;;;;;;;;;9.67;8.00;;;;;;;;2010403;28;3463217;-77
2023/06/24 00:38:22;;;;;;;;;4.67;4.67;;;;;;;;2019552;28;2735690;-77
2023/06/24 00:39:35;;;;;;;;;6.00;6.00;;;;;;;;2019442;28;2729440;-78
2023/06/24 00:40:46;;;;;;;;;8.00;6.00;;;;;;;;2008623;28;1808649;-79
2023/06/24 00:41:56;;;;;;;;;4.00;4.00;;;;;;;;1997820;28;3465236;-78
2023/06/24 00:43:07;;;;;;;;;6.00;4.67;;;;;;;;2022537;28;2740937;-77
2023/06/24 00:44:19;;;;;;;;;6.00;6.00;;;;;;;;2024549;28;2728410;-75
2023/06/24 00:45:32;;;;;;;;;7.00;6.33;;;;;;;;1994562;28;3450270;-75
2023/06/24 00:46:42;;;;;;;;;5.00;5.00;;;;;;;;2002389;28;3458574;-80
2023/06/24 00:47:56;;;;;;;;;5.00;5.00;;;;;;;;2018416;28;3461698;-79
2023/06/24 00:49:07;;;;;;;;;7.33;6.00;;;;;;;;2002935;28;2741940;-79
2023/06/24 00:50:18;;;;;;;;;5.67;5.00;;;;;;;;2020021;28;2750882;-79
2023/06/24 00:51:33;;;;;;;;;6.00;5.67;;;;;;;;2014150;28;2750298;-79
2023/06/24 00:52:43;;;;;;;;;6.00;5.67;;;;;;;;2000407;28;2737827;-79
2023/06/24 00:53:54;;;;;;;;;11.33;5.00;;;;;;;;2020632;28;3484611;-79
2023/06/24 00:55:06;;;;;;;;;7.00;5.75;;;;;;;;2019880;28;2734637;-80
2023/06/24 00:56:21;;;;;;;;;4.00;3.00;;;;;;;;2020694;28;2732560;-79
2023/06/24 00:57:31;;;;;;;;;9.00;6.00;;;;;;;;1976626;28;2739841;-79
2023/06/24 00:58:43;;;;;;;;;5.67;5.67;;;;;;;;2018827;28;2747207;-79
2023/06/24 00:59:56;;;;;;;;;6.00;6.00;;;;;;;;1998013;28;2735679;-79
2023/06/24 01:01:08;;;;;;;;;6.00;6.00;;;;;;;;2001533;28;2750729;-79
2023/06/24 01:02:22;;;;;;;;;8.17;6.00;;;;;;;;2020148;28;2730479;-79
2023/06/24 01:03:32;;;;;;;;;6.33;5.33;;;;;;;;1972858;28;2740897;-79
2023/06/24 01:04:43;;;;;;;;;5.33;5.33;;;;;;;;2022284;28;2746197;-79
2023/06/24 01:05:54;;;;;;;;;6.33;6.33;;;;;;;;2018625;28;2736740;-79
2023/06/24 01:07:05;;;;;;;;;6.00;5.00;;;;;;;;2027673;28;2736739;-79
2023/06/24 01:08:22;;;;;;;;;5.83;5.83;;;;;;;;2028216;28;2732556;-79
2023/06/24 01:09:32;;;;;;;;;8.00;7.00;;;;;;;;1971808;28;2742958;-79
2023/06/24 01:10:43;;;;;;;;;7.33;6.00;;;;;;;;2015434;28;2732574;-79
2023/06/24 01:11:54;;;;;;;;;7.00;6.00;;;;;;;;1994570;28;2737756;-79
2023/06/24 01:13:04;;;;;;;;;8.00;6.33;;;;;;;;1994815;28;2744620;-79
2023/06/24 01:14:19;;;;;;;;;5.00;4.00;;;;;;;;2015753;28;2741936;-77
2023/06/24 01:15:30;;;;;;;;;8.00;6.00;;;;;;;;1994817;28;2743092;-77
2023/06/24 01:16:49;;;;;;;;;5.67;5.67;;;;;;;;2016817;28;2748247;-79
2023/06/24 01:18:18;;;;;;;;;7.00;6.67;;;;;;;;1995243;28;2742970;-79
2023/06/24 01:19:38;;;;;;;;;5.67;5.00;;;;;;;;1994860;28;2746698;-77
2023/06/24 01:21:00;;;;;;;;;5.83;5.50;;;;;;;;2019859;28;2746582;-77
2023/06/24 01:22:25;;;;;;;;;3.67;3.00;;;;;;;;1971977;28;2754541;-77
2023/06/24 01:24:00;;;;;;;;;5.33;5.33;;;;;;;;2020433;28;2735680;-76
2023/06/24 01:25:21;;;;;;;;;4.00;3.33;;;;;;;;1972258;28;2744145;-75
2023/06/24 01:26:46;;;;;;;;;6.33;6.33;;;;;;;;1986554;28;2738307;-75
2023/06/24 01:28:19;;;;;;;;;6.83;6.67;;;;;;;;2015112;28;2732565;-75
2023/06/24 01:29:45;;;;;;;;;8.00;7.00;;;;;;;;1971750;28;2746102;-76
2023/06/24 01:31:17;;;;;;;;;6.83;6.00;;;;;;;;2020026;28;2733602;-75
2023/06/24 01:32:38;;;;;;;;;8.00;6.33;;;;;;;;1962420;28;3450281;-76
2023/06/24 01:33:49;;;;;;;;;6.00;6.00;;;;;;;;1985230;28;3453382;-76
2023/06/24 01:35:02;;;;;;;;;7.67;7.00;;;;;;;;2001102;28;1817429;-76
2023/06/24 01:36:15;;;;;;;;;8.67;7.00;;;;;;;;1990459;28;1825259;-75
2023/06/24 01:37:28;;;;;;;;;6.33;6.33;;;;;;;;1973281;28;2738835;-75
2023/06/24 01:38:43;;;;;;;;;9.33;7.00;;;;;;;;1986058;28;2739975;-76
2023/06/24 01:40:00;;;;;;;;;7.33;6.33;;;;;;;;1987260;28;2735775;-76
2023/06/24 01:41:13;;;;;;;;;8.33;6.33;;;;;;;;1994646;28;2737802;-76
2023/06/24 01:42:28;;;;;;;;;6.50;6.00;;;;;;;;2020049;28;2741930;-76
2023/06/24 01:43:41;;;;;;;;;6.67;6.33;;;;;;;;1972057;28;2743055;-76
2023/06/24 01:44:56;;;;;;;;;5.50;3.00;;;;;;;;2010866;28;2748682;-76
2023/06/24 01:46:07;;;;;;;;;11.67;8.00;;;;;;;;1963866;28;3471042;-76
2023/06/24 01:47:19;;;;;;;;;6.00;6.00;;;;;;;;1994268;28;3456818;-77
2023/06/24 01:48:32;;;;;;;;;7.33;5.33;;;;;;;;1994094;28;3456498;-77
2023/06/24 01:49:45;;;;;;;;;8.00;5.50;;;;;;;;2015308;28;1822181;-78
2023/06/24 01:51:00;;;;;;;;;7.33;5.83;;;;;;;;2025902;28;2746071;-78
2023/06/24 01:52:13;;;;;;;;;6.33;6.33;;;;;;;;2005162;28;2736738;-78
2023/06/24 01:53:26;;;;;;;;;9.25;6.25;;;;;;;;1992912;28;1821680;-78
2023/06/24 01:54:40;;;;;;;;;5.00;5.00;;;;;;;;2028759;28;2748684;-78
2023/06/24 01:55:50;;;;;;;;;9.00;8.00;;;;;;;;1981405;28;2742979;-78
2023/06/24 01:57:05;;;;;;;;;7.00;5.60;;;;;;;;2028539;28;2738273;-78
2023/06/24 01:58:17;;;;;;;;;8.00;7.00;;;;;;;;2003206;28;3447587;-78
2023/06/24 01:59:28;;;;;;;;;7.67;5.33;;;;;;;;1997434;28;2740371;-78
2023/06/24 02:00:39;;;;;;;;;5.50;5.50;;;;;;;;1995963;28;2743005;-78
2023/06/24 02:01:51;;;;;;;;;7.33;6.00;;;;;;;;2003995;28;2748274;-78
2023/06/24 02:03:03;;;;;;;;;5.67;5.67;;;;;;;;1996168;28;3454424;-78
2023/06/24 02:04:15;;;;;;;;;6.00;6.00;;;;;;;;1996253;28;2739936;-78
2023/06/24 02:05:27;;;;;;;;;10.00;7.00;;;;;;;;2017202;28;1817023;-78
2023/06/24 02:06:39;;;;;;;;;9.67;5.00;;;;;;;;2000015;28;3477347;-77
2023/06/24 02:07:51;;;;;;;;;7.00;6.33;;;;;;;;1995632;28;3449291;-78
2023/06/24 02:09:03;;;;;;;;;5.33;5.00;;;;;;;;1987845;28;2748267;-77
2023/06/24 02:10:17;;;;;;;;;6.17;6.17;;;;;;;;2013326;28;2732576;-77
2023/06/24 02:11:28;;;;;;;;;6.00;5.00;;;;;;;;1974025;28;2746100;-77
2023/06/24 02:12:43;;;;;;;;;6.33;6.00;;;;;;;;2028558;28;2726303;-77
2023/06/24 02:13:54;;;;;;;;;7.33;5.67;;;;;;;;1981190;28;2750814;-76
2023/06/24 02:15:06;;;;;;;;;8.00;7.33;;;;;;;;2006130;28;2739877;-75
2023/06/24 02:16:18;;;;;;;;;6.00;4.67;;;;;;;;1995809;28;2746130;-75
2023/06/24 02:17:31;;;;;;;;;9.17;6.17;;;;;;;;2021302;28;2743286;-78
2023/06/24 02:18:43;;;;;;;;;6.67;6.67;;;;;;;;1973801;28;2738842;-78
2023/06/24 02:19:53;;;;;;;;;6.67;6.67;;;;;;;;1987419;28;3459639;-76
2023/06/24 02:21:05;;;;;;;;;7.00;7.00;;;;;;;;1992843;28;2737814;-77
2023/06/24 02:22:17;;;;;;;;;9.67;7.67;;;;;;;;1999210;28;3452328;-77
2023/06/24 02:23:28;;;;;;;;;7.67;6.33;;;;;;;;1995981;28;2738234;-77
2023/06/24 02:24:40;;;;;;;;;7.00;6.00;;;;;;;;1995461;28;2741968;-77
2023/06/24 02:25:51;;;;;;;;;6.33;6.00;;;;;;;;1995915;28;2733624;-75
2023/06/24 02:27:03;;;;;;;;;8.00;6.00;;;;;;;;2009036;28;2745574;-75
2023/06/24 02:28:14;;;;;;;;;11.00;8.00;;;;;;;;1987243;28;3473153;-75
2023/06/24 02:29:26;;;;;;;;;7.67;7.67;;;;;;;;1995397;28;3452305;-75
2023/06/24 02:30:37;;;;;;;;;8.33;7.00;;;;;;;;1995547;28;3442942;-75
2023/06/24 02:31:48;;;;;;;;;7.00;6.33;;;;;;;;1996394;28;2740891;-79
2023/06/24 02:32:58;;;;;;;;;6.00;4.67;;;;;;;;2019721;28;2728393;-79
2023/06/24 02:34:09;;;;;;;;;10.50;5.00;;;;;;;;1994157;28;2757592;-79
2023/06/24 02:35:20;;;;;;;;;7.00;7.00;;;;;;;;2018799;28;2743073;-79
2023/06/24 02:36:30;;;;;;;;;9.33;7.67;;;;;;;;1997312;28;3454447;-78
2023/06/24 02:37:41;;;;;;;;;7.33;6.00;;;;;;;;2013861;28;2742353;-78
2023/06/24 02:38:52;;;;;;;;;7.00;7.00;;;;;;;;2019898;28;2736783;-79
2023/06/24 02:40:05;;;;;;;;;9.00;7.00;;;;;;;;2010209;28;1821606;-79
2023/06/24 02:41:18;;;;;;;;;8.83;7.50;;;;;;;;2020954;28;2739825;-78
2023/06/24 02:42:28;;;;;;;;;4.67;3.00;;;;;;;;1974056;28;2754537;-78
2023/06/24 02:43:39;;;;;;;;;6.00;6.00;;;;;;;;2034882;28;1810668;-78
2023/06/24 02:44:49;;;;;;;;;7.33;6.67;;;;;;;;2004669;28;2740921;-80
2023/06/24 02:46:01;;;;;;;;;9.00;7.67;;;;;;;;2033801;28;1824333;-80
2023/06/24 02:47:14;;;;;;;;;10.50;7.50;;;;;;;;1979036;28;2758630;-77
2023/06/24 02:48:30;;;;;;;;;6.33;5.67;;;;;;;;2029504;28;2731868;-77
2023/06/24 02:49:42;;;;;;;;;9.67;8.00;;;;;;;;1967753;28;3471082;-77
2023/06/24 02:50:52;;;;;;;;;8.67;6.00;;;;;;;;1980111;28;2744050;-77
2023/06/24 02:52:03;;;;;;;;;9.00;6.33;;;;;;;;1996190;28;3457640;-76
2023/06/24 02:53:15;;;;;;;;;8.00;5.25;;;;;;;;2004132;28;1821629;-76
2023/06/24 02:54:28;;;;;;;;;7.33;5.00;;;;;;;;1995629;28;2747203;-76
2023/06/24 02:55:40;;;;;;;;;7.33;6.00;;;;;;;;2000966;28;1814842;-76
2023/06/24 02:56:50;;;;;;;;;6.00;5.00;;;;;;;;1958241;28;3459665;-76
2023/06/24 02:58:02;;;;;;;;;9.00;6.67;;;;;;;;2003967;28;3450252;-76
2023/06/24 02:59:12;;;;;;;;;7.67;7.00;;;;;;;;1988474;28;2734766;-76
2023/06/24 03:00:23;;;;;;;;;6.00;6.00;;;;;;;;2026519;28;1821105;-77
2023/06/24 03:01:38;;;;;;;;;6.33;6.00;;;;;;;;1995853;28;2738889;-78
2023/06/24 03:02:50;;;;;;;;;8.67;6.67;;;;;;;;1989603;28;3452360;-77
2023/06/24 03:04:03;;;;;;;;;6.00;6.00;;;;;;;;2021878;28;2736186;-76
2023/06/24 03:05:15;;;;;;;;;6.00;5.33;;;;;;;;1980311;28;2746181;-76
2023/06/24 03:06:27;;;;;;;;;5.33;5.00;;;;;;;;2000873;28;2748229;-76
2023/06/24 03:07:38;;;;;;;;;11.00;6.33;;;;;;;;2003294;28;2745130;-75
2023/06/24 03:08:49;;;;;;;;;7.00;5.00;;;;;;;;1994120;28;2739848;-76
2023/06/24 03:09:59;;;;;;;;;9.00;6.67;;;;;;;;1989718;28;2736717;-76
2023/06/24 03:11:12;;;;;;;;;7.00;7.00;;;;;;;;2020357;28;2736747;-76
2023/06/24 03:12:22;;;;;;;;;5.00;5.00;;;;;;;;1993227;28;2752941;-75
2023/06/24 03:13:33;;;;;;;;;8.00;7.00;;;;;;;;2001210;28;3447112;-75
2023/06/24 03:14:44;;;;;;;;;8.00;6.67;;;;;;;;2007233;28;3447112;-75
2023/06/24 03:15:55;;;;;;;;;11.33;7.00;;;;;;;;2012926;28;3475224;-75
2023/06/24 03:17:06;;;;;;;;;8.00;7.00;;;;;;;;2002519;28;3449180;-75
2023/06/24 03:18:18;;;;;;;;;6.67;4.33;;;;;;;;2017465;28;1809632;-75
2023/06/24 03:19:31;;;;;;;;;7.33;7.33;;;;;;;;2013973;28;2729455;-75
2023/06/24 03:20:44;;;;;;;;;5.67;5.67;;;;;;;;1997397;28;2729463;-75
2023/06/24 03:21:57;;;;;;;;;5.50;4.33;;;;;;;;1989424;28;2734679;-76
2023/06/24 03:23:10;;;;;;;;;6.00;6.00;;;;;;;;1996918;28;2737203;-75
2023/06/24 03:24:21;;;;;;;;;6.00;4.00;;;;;;;;1978196;28;2743070;-75
2023/06/24 03:25:32;;;;;;;;;7.33;6.67;;;;;;;;2023875;28;3452383;-77
2023/06/24 03:26:45;;;;;;;;;6.67;6.50;;;;;;;;2028832;28;2732588;-77
2023/06/24 03:27:55;;;;;;;;;7.33;6.00;;;;;;;;1994960;28;2740883;-77
2023/06/24 03:29:10;;;;;;;;;8.00;6.33;;;;;;;;2018570;28;2740909;-77
2023/06/24 03:30:20;;;;;;;;;8.00;7.00;;;;;;;;1995414;28;2735714;-77
2023/06/24 03:31:31;;;;;;;;;9.00;7.00;;;;;;;;2018687;28;2736793;-77
2023/06/24 03:32:46;;;;;;;;;8.33;6.00;;;;;;;;2024337;28;2735694;-77
2023/06/24 03:33:57;;;;;;;;;8.67;6.00;;;;;;;;1994129;28;3455437;-78
2023/06/24 03:35:08;;;;;;;;;6.00;6.00;;;;;;;;2016418;28;2736847;-78
2023/06/24 03:36:19;;;;;;;;;7.67;6.33;;;;;;;;2016523;28;2731583;-78
2023/06/24 03:37:32;;;;;;;;;6.83;5.50;;;;;;;;2024899;28;2740891;-78
2023/06/24 03:38:46;;;;;;;;;6.00;6.00;;;;;;;;1997044;28;2738863;-78
2023/06/24 03:39:59;;;;;;;;;7.00;7.00;;;;;;;;2003909;28;2746118;-76
2023/06/24 03:41:09;;;;;;;;;6.67;6.00;;;;;;;;1978263;28;2746189;-76
2023/06/24 03:42:20;;;;;;;;;10.00;8.00;;;;;;;;2021204;28;2747634;-75
2023/06/24 03:43:31;;;;;;;;;7.67;7.00;;;;;;;;2025623;28;1821186;-75
2023/06/24 03:44:43;;;;;;;;;7.80;6.00;;;;;;;;2020093;28;2726355;-76
2023/06/24 03:45:53;;;;;;;;;7.00;5.00;;;;;;;;1976071;28;2746217;-77
2023/06/24 03:47:04;;;;;;;;;7.00;6.33;;;;;;;;2024293;28;2738830;-76
2023/06/24 03:48:15;;;;;;;;;7.67;6.00;;;;;;;;2020423;28;2734659;-77
2023/06/24 03:49:26;;;;;;;;;6.33;6.33;;;;;;;;2031639;28;1808084;-77
2023/06/24 03:50:38;;;;;;;;;7.00;7.00;;;;;;;;2020567;28;2735679;-77
2023/06/24 03:51:51;;;;;;;;;7.83;7.50;;;;;;;;1998687;28;2739847;-77
2023/06/24 03:53:02;;;;;;;;;6.00;4.33;;;;;;;;1971953;28;2754475;-77
2023/06/24 03:54:12;;;;;;;;;6.33;6.00;;;;;;;;1999892;28;2737806;-77
2023/06/24 03:55:23;;;;;;;;;7.00;6.00;;;;;;;;2014633;28;2735336;-77
2023/06/24 03:56:34;;;;;;;;;3.00;3.00;;;;;;;;2013025;28;2744067;-77
2023/06/24 03:57:45;;;;;;;;;9.67;6.00;;;;;;;;2014657;28;3460661;-77
2023/06/24 03:58:56;;;;;;;;;4.67;3.67;;;;;;;;2019657;28;2745057;-77
2023/06/24 04:00:14;;;;;;;;;6.80;5.60;;;;;;;;2019921;28;2735712;-77
2023/06/24 04:01:31;;;;;;;;;6.17;5.17;;;;;;;;1999070;28;2744009;-77
2023/06/24 04:02:45;;;;;;;;;8.50;6.33;;;;;;;;2001228;28;2739869;-77
2023/06/24 04:03:55;;;;;;;;;6.00;6.00;;;;;;;;1980622;28;2748197;-77
2023/06/24 04:05:06;;;;;;;;;5.00;5.00;;;;;;;;2013721;28;2743034;-77
2023/06/24 04:06:17;;;;;;;;;7.00;5.67;;;;;;;;2022890;28;1814837;-77
2023/06/24 04:07:28;;;;;;;;;9.00;7.00;;;;;;;;1998147;28;2730970;-77
2023/06/24 04:08:43;;;;;;;;;6.67;5.00;;;;;;;;2002379;28;2752439;-77
2023/06/24 04:09:54;;;;;;;;;5.67;5.67;;;;;;;;2002829;28;2737812;-77
2023/06/24 04:11:04;;;;;;;;;7.33;6.00;;;;;;;;1997180;28;3450254;-77
2023/06/24 04:12:15;;;;;;;;;6.00;6.00;;;;;;;;2015890;28;3456475;-77
2023/06/24 04:13:26;;;;;;;;;4.67;4.67;;;;;;;;2022326;28;2748201;-76
2023/06/24 04:14:37;;;;;;;;;5.67;5.67;;;;;;;;2023148;28;2750704;-77
2023/06/24 04:15:48;;;;;;;;;8.00;6.00;;;;;;;;2022610;28;2735697;-76
2023/06/24 04:16:59;;;;;;;;;8.00;8.00;;;;;;;;2022449;28;3455445;-76
2023/06/24 04:18:10;;;;;;;;;1.00;1.00;;;;;;;;2027868;28;2744503;-76
2023/06/24 04:19:20;;;;;;;;;5.33;5.33;;;;;;;;1992921;28;2745060;-76
2023/06/24 04:20:31;;;;;;;;;5.00;5.00;;;;;;;;2007566;28;2740964;-78
2023/06/24 04:21:42;;;;;;;;;7.33;6.00;;;;;;;;2012095;28;2737816;-78
2023/06/24 04:22:52;;;;;;;;;7.00;6.00;;;;;;;;1993855;28;3456503;-77
2023/06/24 04:24:03;;;;;;;;;8.00;7.00;;;;;;;;2003665;28;3454451;-78
2023/06/24 04:25:14;;;;;;;;;5.00;5.00;;;;;;;;1992016;28;2746246;-78
2023/06/24 04:26:25;;;;;;;;;10.00;6.00;;;;;;;;2020880;28;3463786;-78
2023/06/24 04:27:36;;;;;;;;;7.00;6.00;;;;;;;;2022836;28;3439833;-77
2023/06/24 04:28:50;;;;;;;;;5.83;5.17;;;;;;;;2028555;28;2735667;-77
2023/06/24 04:30:00;;;;;;;;;8.33;7.00;;;;;;;;1978740;28;3450265;-77
2023/06/24 04:31:11;;;;;;;;;7.00;7.00;;;;;;;;2015433;28;2731612;-77
2023/06/24 04:32:22;;;;;;;;;8.67;5.33;;;;;;;;2031205;28;1821146;-77
2023/06/24 04:33:34;;;;;;;;;6.20;6.20;;;;;;;;2020240;28;2738858;-77
2023/06/24 04:34:44;;;;;;;;;5.00;5.00;;;;;;;;1973172;28;2750367;-77
2023/06/24 04:35:55;;;;;;;;;6.67;6.67;;;;;;;;2019113;28;1819025;-77
2023/06/24 04:37:06;;;;;;;;;11.33;7.00;;;;;;;;1986000;28;3481443;-77
2023/06/24 04:38:18;;;;;;;;;5.67;5.67;;;;;;;;2007931;28;3459623;-77
2023/06/24 04:39:29;;;;;;;;;10.50;7.00;;;;;;;;2001207;28;1810664;-77
2023/06/24 04:40:39;;;;;;;;;7.00;5.00;;;;;;;;1994397;28;2745073;-75
2023/06/24 04:41:50;;;;;;;;;6.00;6.00;;;;;;;;2024097;28;1819102;-78
2023/06/24 04:43:00;;;;;;;;;7.00;7.00;;;;;;;;1985711;28;2734645;-75
2023/06/24 04:44:11;;;;;;;;;9.00;5.33;;;;;;;;2009930;28;3461671;-75
2023/06/24 04:45:22;;;;;;;;;6.67;6.67;;;;;;;;2022845;28;2738923;-75
2023/06/24 04:46:34;;;;;;;;;7.00;7.00;;;;;;;;2005795;28;2739897;-77
2023/06/24 04:47:45;;;;;;;;;7.00;6.00;;;;;;;;2003368;28;2739884;-77
2023/06/24 04:48:55;;;;;;;;;10.33;6.33;;;;;;;;2006006;28;2753490;-77
2023/06/24 04:50:09;;;;;;;;;8.00;6.00;;;;;;;;2012365;28;2740959;-77
2023/06/24 04:51:19;;;;;;;;;6.00;6.00;;;;;;;;1988386;28;3453350;-77
2023/06/24 04:52:30;;;;;;;;;5.67;5.67;;;;;;;;2011048;28;2731518;-77
2023/06/24 04:53:41;;;;;;;;;8.50;5.50;;;;;;;;2002218;28;1821156;-77
2023/06/24 04:54:54;;;;;;;;;7.00;7.00;;;;;;;;2020823;28;2739892;-77
2023/06/24 04:56:04;;;;;;;;;8.00;5.67;;;;;;;;1974012;28;2746586;-77
2023/06/24 04:57:26;;;;;;;;;4.00;4.00;;;;;;;;2022549;28;3465898;-77
2023/06/24 04:58:39;;;;;;;;;6.67;6.67;;;;;;;;2023633;28;2734629;-77
2023/06/24 04:59:52;;;;;;;;;7.50;7.33;;;;;;;;1997624;28;2734660;-76
2023/06/24 05:01:03;;;;;;;;;6.33;6.33;;;;;;;;1971610;28;2734729;-77
2023/06/24 05:02:13;;;;;;;;;7.33;7.00;;;;;;;;2019306;28;2734702;-77
2023/06/24 05:03:24;;;;;;;;;6.00;6.00;;;;;;;;1995348;28;3457572;-77
2023/06/24 05:04:35;;;;;;;;;6.67;5.33;;;;;;;;2019037;28;2746701;-77
2023/06/24 05:05:46;;;;;;;;;7.00;6.33;;;;;;;;2020001;28;2736832;-77
2023/06/24 05:06:56;;;;;;;;;6.00;6.00;;;;;;;;2022318;28;3452329;-77
2023/06/24 05:08:07;;;;;;;;;7.33;6.00;;;;;;;;2021523;28;2748193;-76
2023/06/24 05:09:18;;;;;;;;;6.33;6.33;;;;;;;;2025498;28;2732582;-76
2023/06/24 05:10:28;;;;;;;;;5.67;4.00;;;;;;;;2001259;28;2748257;-74
2023/06/24 05:11:40;;;;;;;;;6.00;6.00;;;;;;;;2018352;28;2734645;-74
2023/06/24 05:12:53;;;;;;;;;6.83;5.50;;;;;;;;2011727;28;2741928;-75
2023/06/24 05:14:03;;;;;;;;;7.00;5.33;;;;;;;;1990042;28;3456502;-74
2023/06/24 05:15:14;;;;;;;;;9.00;7.00;;;;;;;;2016362;28;2750380;-74
2023/06/24 05:16:25;;;;;;;;;5.33;5.00;;;;;;;;2016255;28;2746231;-74
2023/06/24 05:17:36;;;;;;;;;5.00;4.67;;;;;;;;2014057;28;2746175;-74
2023/06/24 05:18:47;;;;;;;;;6.00;6.00;;;;;;;;2011961;28;2745068;-74
2023/06/24 05:19:58;;;;;;;;;7.33;6.00;;;;;;;;2021418;28;2746154;-74
2023/06/24 05:21:11;;;;;;;;;5.40;5.00;;;;;;;;2027686;28;2739868;-74
2023/06/24 05:22:24;;;;;;;;;8.83;6.33;;;;;;;;2021088;28;2741935;-74
2023/06/24 05:23:34;;;;;;;;;5.00;5.00;;;;;;;;1971988;28;2746221;-74
2023/06/24 05:24:45;;;;;;;;;6.67;6.00;;;;;;;;2019020;28;2732956;-74
2023/06/24 05:25:58;;;;;;;;;3.00;3.00;;;;;;;;2013724;28;2726388;-74
2023/06/24 05:27:08;;;;;;;;;6.67;6.67;;;;;;;;1996790;28;3449227;-75
2023/06/24 05:28:19;;;;;;;;;6.00;5.67;;;;;;;;2018862;28;2737774;-74
2023/06/24 05:29:32;;;;;;;;;0.83;0.00;;;;;;;;2023703;28;2696569;-74
2023/06/24 05:30:44;;;;;;;;;5.67;5.00;;;;;;;;2001837;28;3459655;-74
2023/06/24 05:31:54;;;;;;;;;7.67;6.33;;;;;;;;2009547;28;1821099;-74
2023/06/24 05:33:05;;;;;;;;;9.00;7.00;;;;;;;;1983874;28;2746112;-74
2023/06/24 05:34:16;;;;;;;;;7.67;7.67;;;;;;;;2005400;28;2742412;-74
2023/06/24 05:35:28;;;;;;;;;8.33;6.00;;;;;;;;2014780;28;2740970;-74
2023/06/24 05:36:38;;;;;;;;;6.00;6.00;;;;;;;;2001116;28;2744025;-74
2023/06/24 05:37:49;;;;;;;;;9.67;6.33;;;;;;;;2016253;28;1829418;-74
2023/06/24 05:38:59;;;;;;;;;5.33;5.33;;;;;;;;1990523;28;2748170;-74
2023/06/24 05:40:12;;;;;;;;;7.00;7.00;;;;;;;;2009492;28;3446059;-74
2023/06/24 05:41:22;;;;;;;;;5.33;5.33;;;;;;;;2002281;28;2739846;-74
2023/06/24 05:42:33;;;;;;;;;10.33;5.67;;;;;;;;2032794;28;1827334;-74
2023/06/24 05:43:44;;;;;;;;;7.00;5.00;;;;;;;;2002316;28;2754508;-74
2023/06/24 05:44:54;;;;;;;;;5.33;5.33;;;;;;;;2012556;28;2747199;-73
2023/06/24 05:46:05;;;;;;;;;6.33;6.00;;;;;;;;2015434;28;2737853;-73
2023/06/24 05:47:15;;;;;;;;;6.00;4.00;;;;;;;;2002280;28;2738425;-73
2023/06/24 05:48:26;;;;;;;;;6.67;6.33;;;;;;;;2010859;28;2740266;-73
2023/06/24 05:49:37;;;;;;;;;6.00;6.00;;;;;;;;2006873;28;2731536;-73
2023/06/24 05:50:48;;;;;;;;;9.00;7.00;;;;;;;;1988589;28;2740887;-73
2023/06/24 05:51:58;;;;;;;;;9.00;5.33;;;;;;;;2023908;28;1822179;-73
2023/06/24 05:53:09;;;;;;;;;9.00;6.00;;;;;;;;1986621;28;3457496;-74
2023/06/24 05:54:20;;;;;;;;;6.00;6.00;;;;;;;;2016209;28;2736737;-74
2023/06/24 05:55:30;;;;;;;;;4.67;4.67;;;;;;;;2019536;28;2750280;-74
2023/06/24 05:56:41;;;;;;;;;6.00;6.00;;;;;;;;2012073;28;2743103;-74
2023/06/24 05:57:52;;;;;;;;;6.67;6.67;;;;;;;;2005165;28;2736852;-74
2023/06/24 05:59:03;;;;;;;;;6.00;5.00;;;;;;;;1989833;28;2742307;-74
2023/06/24 06:00:13;;;;;;;;;9.00;7.00;;;;;;;;2011634;28;2744122;-74
2023/06/24 06:01:24;;;;;;;;;6.67;6.67;;;;;;;;2011788;28;3446129;-74
2023/06/24 06:02:35;;;;;;;;;7.00;7.00;;;;;;;;2017445;28;1819024;-74
2023/06/24 06:03:46;;;;;;;;;9.00;7.00;;;;;;;;1986309;28;3439832;-74
2023/06/24 06:04:56;;;;;;;;;9.00;7.00;;;;;;;;2027419;28;1815384;-74
2023/06/24 06:06:07;;;;;;;;;9.50;8.00;;;;;;;;1996251;28;2757019;-74
2023/06/24 06:07:18;;;;;;;;;5.67;4.00;;;;;;;;2018579;28;2745025;-74
2023/06/24 06:08:29;;;;;;;;;9.67;7.67;;;;;;;;2026958;28;1820117;-74
2023/06/24 06:09:39;;;;;;;;;8.50;8.50;;;;;;;;1993865;28;2742970;-74
2023/06/24 06:10:50;;;;;;;;;2.00;1.67;;;;;;;;2007634;28;2730427;-74
2023/06/24 06:12:00;;;;;;;;;9.00;8.50;;;;;;;;2001342;28;2736725;-74
2023/06/24 06:13:12;;;;;;;;;9.40;7.80;;;;;;;;2023307;28;1821136;-74
2023/06/24 06:14:22;;;;;;;;;5.33;5.33;;;;;;;;1984041;28;2741900;-74
2023/06/24 06:15:33;;;;;;;;;8.33;7.00;;;;;;;;2012818;28;3457556;-74
2023/06/24 06:16:44;;;;;;;;;8.00;7.00;;;;;;;;2017256;28;2737802;-74
2023/06/24 06:17:55;;;;;;;;;7.33;7.33;;;;;;;;2016102;28;2737282;-73
2023/06/24 06:19:06;;;;;;;;;7.00;6.00;;;;;;;;2015869;28;2746184;-75
2023/06/24 06:20:17;;;;;;;;;7.00;7.00;;;;;;;;2029029;28;1825366;-75
2023/06/24 06:21:27;;;;;;;;;7.00;6.00;;;;;;;;1976991;28;2745522;-74
2023/06/24 06:22:38;;;;;;;;;8.67;7.00;;;;;;;;2016317;28;3449184;-75
2023/06/24 06:23:49;;;;;;;;;6.50;6.50;;;;;;;;2019974;28;2734645;-75
2023/06/24 06:25:00;;;;;;;;;6.67;5.67;;;;;;;;2019910;28;3442930;-75
2023/06/24 06:26:11;;;;;;;;;5.67;5.00;;;;;;;;2008113;28;2731087;-75
2023/06/24 06:27:21;;;;;;;;;6.00;6.00;;;;;;;;2015402;28;2747179;-75
2023/06/24 06:28:32;;;;;;;;;11.00;6.67;;;;;;;;2011746;28;3470107;-75
2023/06/24 06:29:43;;;;;;;;;7.33;7.00;;;;;;;;2014527;28;2736814;-75
2023/06/24 06:30:54;;;;;;;;;6.67;5.67;;;;;;;;2011173;28;2734660;-75
2023/06/24 06:32:05;;;;;;;;;5.67;5.67;;;;;;;;2008854;28;3453441;-75
2023/06/24 06:33:16;;;;;;;;;6.67;6.67;;;;;;;;2005065;28;2741948;-75
2023/06/24 06:34:27;;;;;;;;;8.00;7.50;;;;;;;;2011996;28;2733608;-74
2023/06/24 06:35:38;;;;;;;;;7.00;6.00;;;;;;;;2023404;28;2740860;-75
2023/06/24 06:36:48;;;;;;;;;8.33;7.00;;;;;;;;2000617;28;3447116;-74
2023/06/24 06:37:59;;;;;;;;;8.00;6.33;;;;;;;;2020086;28;3456511;-75
2023/06/24 06:39:10;;;;;;;;;7.67;6.67;;;;;;;;1996973;28;2744097;-75
2023/06/24 06:40:21;;;;;;;;;8.00;6.33;;;;;;;;2017205;28;2732576;-75
2023/06/24 06:41:32;;;;;;;;;8.33;6.00;;;;;;;;2004118;28;2742006;-75
2023/06/24 06:42:42;;;;;;;;;6.67;5.67;;;;;;;;1998647;28;2746224;-75
2023/06/24 06:43:54;;;;;;;;;7.67;4.67;;;;;;;;2008233;28;2748350;-75
2023/06/24 06:45:05;;;;;;;;;7.50;6.75;;;;;;;;2019792;28;2736744;-75
2023/06/24 06:46:16;;;;;;;;;4.00;4.00;;;;;;;;1997957;28;2751426;-75
2023/06/24 06:47:26;;;;;;;;;6.67;6.67;;;;;;;;2017945;28;3450300;-74
2023/06/24 06:48:37;;;;;;;;;12.00;7.67;;;;;;;;2008865;28;3487783;-75
2023/06/24 06:49:48;;;;;;;;;6.33;5.00;;;;;;;;2015897;28;3458584;-75
2023/06/24 06:50:59;;;;;;;;;8.33;7.33;;;;;;;;2012164;28;3446554;-75
2023/06/24 06:52:10;;;;;;;;;6.33;6.33;;;;;;;;2020397;28;2731536;-75
2023/06/24 06:53:20;;;;;;;;;7.00;5.00;;;;;;;;1992270;28;2750322;-75
2023/06/24 06:54:31;;;;;;;;;7.33;6.67;;;;;;;;2002880;28;3445036;-75
2023/06/24 06:55:42;;;;;;;;;7.33;6.67;;;;;;;;2013204;28;2741929;-76
2023/06/24 06:56:55;;;;;;;;;6.75;6.00;;;;;;;;2020115;28;2730879;-75
2023/06/24 06:58:05;;;;;;;;;5.67;5.67;;;;;;;;1965989;28;2737786;-75